Time;durP1;ratioP1;P1;durP2;ratioP2;P2;SDS_P1;SDS_P2;PMS_P1;PMS_P2;Temp;Humidity;BMP_temperature;BMP_pressure;BME280_temperature;BME280_humidity;BME280_pressure;Samples;Min_cycle;Max_cycle;Signal;HPM_P1;HPM_P2
2022/09/17 00:01:47;;;;;;;2.00;1.23;;;9.70;99.90;;;;;;5138569;28;20653;-44
2022/09/17 00:04:13;;;;;;;5.70;1.70;;;9.70;99.90;;;;;;5137942;28;20689;-44
2022/09/17 00:06:38;;;;;;;2.60;1.33;;;9.70;99.90;;;;;;5137891;28;20185;-47
2022/09/17 00:09:05;;;;;;;2.03;1.33;;;9.70;99.90;;;;;;5136778;28;20176;-44
2022/09/17 00:11:33;;;;;;;2.30;1.40;;;9.70;99.90;;;;;;5136283;28;20300;-45
2022/09/17 00:14:00;;;;;;;2.67;1.40;;;9.70;99.90;;;;;;5137729;28;20432;-45
2022/09/17 00:16:36;;;;;;;1.70;1.20;;;9.70;99.90;;;;;;5137798;28;20428;-43
2022/09/17 00:19:03;;;;;;;2.70;1.43;;;9.70;99.90;;;;;;5119746;28;20460;-45
2022/09/17 00:21:29;;;;;;;3.67;1.53;;;9.70;99.90;;;;;;5137999;28;20461;-45
2022/09/17 00:23:57;;;;;;;1.83;1.13;;;9.70;99.90;;;;;;5138111;28;20822;-44
2022/09/17 00:26:23;;;;;;;1.50;1.13;;;9.70;99.90;;;;;;5138546;28;20279;-44
2022/09/17 00:28:51;;;;;;;1.70;1.20;;;9.70;99.90;;;;;;5137736;28;20511;-43
2022/09/17 00:31:16;;;;;;;1.53;1.17;;;9.70;99.90;;;;;;5138290;28;20420;-44
2022/09/17 00:33:42;;;;;;;2.00;1.30;;;9.70;99.90;;;;;;5137941;28;20754;-44
2022/09/17 00:36:08;;;;;;;1.97;1.50;;;9.70;99.90;;;;;;5139077;27;20423;-44
2022/09/17 00:38:34;;;;;;;2.80;1.33;;;9.80;99.90;;;;;;5120879;27;20443;-45
2022/09/17 00:41:01;;;;;;;1.73;1.40;;;9.70;99.90;;;;;;5140914;27;20241;-45
2022/09/17 00:43:37;;;;;;;2.33;1.70;;;9.70;99.90;;;;;;5141573;27;20225;-46
2022/09/17 00:46:05;;;;;;;2.47;1.87;;;9.70;99.90;;;;;;5141915;27;20427;-43
2022/09/17 00:48:31;;;;;;;2.90;1.70;;;9.70;99.90;;;;;;5123461;27;20421;-47
2022/09/17 00:51:00;;;;;;;2.50;2.20;;;9.70;99.90;;;;;;5123548;27;20437;-45
2022/09/17 00:53:27;;;;;;;1.87;1.60;;;9.70;99.90;;;;;;5123559;27;20187;-44
2022/09/17 00:55:58;;;;;;;1.80;1.50;;;9.70;99.90;;;;;;5122956;27;20464;-45
2022/09/17 00:58:25;;;;;;;2.20;1.63;;;9.70;99.90;;;;;;5123174;27;20623;-43
2022/09/17 01:00:50;;;;;;;3.37;2.03;;;9.60;99.90;;;;;;5121699;27;20404;-43
2022/09/17 01:03:16;;;;;;;2.90;2.03;;;9.60;99.90;;;;;;5140048;27;20520;-46
2022/09/17 01:05:59;;;;;;;4.40;1.90;;;9.60;99.90;;;;;;5140791;27;20553;-45
2022/09/17 01:08:53;;;;;;;2.00;1.80;;;9.60;99.90;;;;;;5102258;28;20190;-45
2022/09/17 01:11:38;;;;;;;2.50;2.20;;;9.60;99.90;;;;;;5102685;28;20723;-45
2022/09/17 01:14:48;;;;;;;3.30;1.70;;;9.60;99.90;;;;;;5103753;28;20445;-42
2022/09/17 01:17:16;;;;;;;2.90;1.87;;;9.60;99.90;;;;;;5120508;28;20422;-47
2022/09/17 01:20:15;;;;;;;3.33;2.10;;;9.80;99.90;;;;;;5121495;28;20414;-47
2022/09/17 01:22:53;;;;;;;3.40;2.00;;;10.30;99.90;;;;;;5120509;28;20779;-44
2022/09/17 01:25:48;;;;;;;4.07;2.50;;;10.40;99.90;;;;;;5119462;28;20688;-42
2022/09/17 01:28:49;;;;;;;5.73;2.60;;;10.20;99.90;;;;;;5119649;28;20743;-43
2022/09/17 01:31:17;;;;;;;2.47;2.13;;;10.20;99.90;;;;;;5119896;28;20743;-43
2022/09/17 01:34:07;;;;;;;4.33;2.13;;;10.00;99.90;;;;;;5121054;28;20418;-42
2022/09/17 01:36:44;;;;;;;3.20;2.27;;;9.90;99.90;;;;;;5120892;28;20422;-44
2022/09/17 01:39:56;;;;;;;4.80;2.20;;;9.80;99.90;;;;;;5120520;28;20436;-45
2022/09/17 01:42:35;;;;;;;2.13;1.90;;;9.70;99.90;;;;;;5118992;28;20750;-45
2022/09/17 01:45:26;;;;;;;2.77;1.97;;;9.50;99.90;;;;;;5100948;28;20410;-45
2022/09/17 01:48:16;;;;;;;3.00;1.77;;;9.50;99.90;;;;;;5099188;28;20506;-45
2022/09/17 01:50:57;;;;;;;3.10;2.23;;;9.50;99.90;;;;;;5101326;28;20418;-47
2022/09/17 01:53:27;;;;;;;3.50;2.07;;;9.50;99.90;;;;;;5100757;28;20486;-44
2022/09/17 01:55:54;;;;;;;3.40;2.60;;;9.50;99.90;;;;;;5100222;28;20503;-47
2022/09/17 01:58:24;;;;;;;3.37;2.23;;;9.50;99.90;;;;;;5101754;28;20470;-46
2022/09/17 02:00:56;;;;;;;3.43;2.50;;;9.50;99.90;;;;;;5120132;28;20433;-46
2022/09/17 02:03:29;;;;;;;4.70;2.53;;;9.40;99.90;;;;;;5119910;28;20415;-43
2022/09/17 02:06:05;;;;;;;4.30;2.43;;;9.30;99.90;;;;;;5101911;28;20431;-42
2022/09/17 02:08:43;;;;;;;2.37;2.17;;;9.30;99.90;;;;;;5119671;28;20426;-46
2022/09/17 02:11:10;;;;;;;2.97;2.23;;;9.40;99.90;;;;;;5102008;28;20426;-47
2022/09/17 02:13:43;;;;;;;1.80;1.60;;;9.40;99.90;;;;;;5083843;28;20593;-43
2022/09/17 02:16:18;;;;;;;2.67;2.20;;;9.40;99.90;;;;;;5100069;28;20489;-44
2022/09/17 02:19:05;;;;;;;4.30;2.33;;;9.40;99.90;;;;;;5101391;28;20910;-44
2022/09/17 02:21:49;;;;;;;1.97;1.73;;;9.40;99.90;;;;;;5117997;28;20953;-46
2022/09/17 02:24:35;;;;;;;3.90;2.40;;;9.40;99.90;;;;;;5118169;28;20514;-45
2022/09/17 02:27:05;;;;;;;2.27;2.07;;;9.40;99.90;;;;;;5101190;28;20415;-45
2022/09/17 02:29:42;;;;;;;2.50;2.30;;;9.40;99.90;;;;;;5102148;28;20504;-43
2022/09/17 02:32:10;;;;;;;4.27;2.47;;;9.40;99.90;;;;;;5085171;28;20461;-45
2022/09/17 02:34:36;;;;;;;2.50;2.00;;;9.40;99.90;;;;;;5118650;28;20433;-44
2022/09/17 02:37:03;;;;;;;6.23;1.93;;;9.40;99.90;;;;;;5118772;28;20426;-46
2022/09/17 02:39:29;;;;;;;3.67;2.70;;;9.40;99.90;;;;;;5100677;28;20462;-48
2022/09/17 02:42:04;;;;;;;4.43;2.13;;;9.40;99.90;;;;;;5118429;28;20574;-44
2022/09/17 02:44:55;;;;;;;3.33;2.13;;;9.40;99.90;;;;;;5118622;28;20410;-43
2022/09/17 02:47:48;;;;;;;2.80;2.03;;;9.30;99.90;;;;;;5119115;28;20530;-42
2022/09/17 02:50:13;;;;;;;3.10;1.90;;;9.40;99.90;;;;;;5118627;28;20726;-45
2022/09/17 02:52:50;;;;;;;4.30;2.43;;;9.40;99.90;;;;;;5118307;28;20502;-46
2022/09/17 02:55:33;;;;;;;4.63;2.30;;;9.40;99.90;;;;;;5119194;28;20234;-44
2022/09/17 02:58:18;;;;;;;6.60;2.47;;;9.40;99.90;;;;;;5101595;28;20434;-43
2022/09/17 03:00:44;;;;;;;4.13;2.20;;;9.40;99.90;;;;;;5119050;28;20448;-44
2022/09/17 03:03:51;;;;;;;5.43;1.83;;;9.40;99.90;;;;;;5100218;28;20427;-45
2022/09/17 03:06:17;;;;;;;2.53;1.87;;;9.40;99.90;;;;;;5118809;28;20727;-43
2022/09/17 03:08:43;;;;;;;4.80;1.70;;;9.30;99.90;;;;;;5118849;28;20473;-44
2022/09/17 03:11:11;;;;;;;5.53;1.90;;;9.30;99.90;;;;;;5100558;28;20472;-42
2022/09/17 03:13:37;;;;;;;4.47;2.13;;;9.30;99.90;;;;;;5101403;28;20226;-42
2022/09/17 03:16:03;;;;;;;4.30;2.43;;;9.30;99.90;;;;;;5117865;28;20450;-46
2022/09/17 03:18:29;;;;;;;7.97;2.17;;;9.30;99.90;;;;;;5117370;28;20252;-44
2022/09/17 03:20:55;;;;;;;3.93;1.97;;;9.20;99.90;;;;;;5116678;28;20749;-46
2022/09/17 03:23:20;;;;;;;5.30;1.90;;;9.20;99.90;;;;;;5098781;28;20817;-46
2022/09/17 03:25:48;;;;;;;8.37;2.27;;;9.10;99.90;;;;;;5117176;28;20165;-46
2022/09/17 03:28:14;;;;;;;6.33;1.60;;;9.10;99.90;;;;;;5116683;28;20547;-45
2022/09/17 03:30:41;;;;;;;3.00;1.83;;;9.00;99.90;;;;;;5080831;28;20649;-44
2022/09/17 03:33:07;;;;;;;2.97;1.50;;;9.00;99.90;;;;;;5116960;28;20643;-44
2022/09/17 03:35:32;;;;;;;5.00;1.93;;;9.00;99.90;;;;;;5117701;28;20809;-45
2022/09/17 03:37:58;;;;;;;5.50;2.20;;;9.10;99.90;;;;;;5117841;28;20187;-43
2022/09/17 03:40:23;;;;;;;6.17;1.87;;;9.00;99.90;;;;;;5117637;28;20418;-46
2022/09/17 03:42:49;;;;;;;4.67;2.07;;;9.10;99.90;;;;;;5118268;28;20209;-44
2022/09/17 03:45:15;;;;;;;3.10;2.07;;;9.10;99.90;;;;;;5118304;28;20554;-44
2022/09/17 03:47:40;;;;;;;5.33;2.83;;;9.10;99.90;;;;;;5117025;28;20165;-44
2022/09/17 03:50:06;;;;;;;5.10;2.40;;;9.10;99.90;;;;;;5118563;28;20180;-44
2022/09/17 03:52:32;;;;;;;2.90;1.80;;;9.10;99.90;;;;;;5118563;28;20307;-43
2022/09/17 03:54:57;;;;;;;4.00;1.87;;;9.00;99.90;;;;;;5117544;28;20473;-46
2022/09/17 03:57:23;;;;;;;3.67;2.30;;;9.00;99.90;;;;;;5117013;28;20195;-45
2022/09/17 03:59:49;;;;;;;3.27;1.80;;;8.90;99.90;;;;;;5117392;28;20603;-48
2022/09/17 04:02:14;;;;;;;2.60;1.80;;;8.90;99.90;;;;;;5100816;28;20211;-45
2022/09/17 04:04:40;;;;;;;4.13;2.13;;;8.90;99.90;;;;;;5117537;28;20183;-46
2022/09/17 04:07:05;;;;;;;6.03;2.40;;;8.90;99.90;;;;;;5118088;28;20267;-44
2022/09/17 04:09:32;;;;;;;4.23;1.93;;;8.90;99.90;;;;;;5118252;28;20168;-47
2022/09/17 04:11:57;;;;;;;5.17;2.10;;;8.90;99.90;;;;;;5102483;28;20556;-44
2022/09/17 04:14:23;;;;;;;5.13;2.23;;;8.90;99.90;;;;;;5122476;28;20482;-46
2022/09/17 04:16:48;;;;;;;5.03;2.30;;;8.90;99.90;;;;;;5120342;28;20329;-44
2022/09/17 04:19:14;;;;;;;3.07;1.93;;;8.90;99.90;;;;;;5120414;28;20247;-44
2022/09/17 04:21:40;;;;;;;4.73;1.80;;;8.90;99.90;;;;;;5121684;28;20212;-44
2022/09/17 04:24:06;;;;;;;2.73;2.20;;;8.90;99.90;;;;;;5120649;28;20170;-43
2022/09/17 04:26:31;;;;;;;4.40;2.80;;;8.90;99.90;;;;;;5119786;28;20180;-43
2022/09/17 04:28:57;;;;;;;4.23;1.93;;;8.90;99.90;;;;;;5119924;28;20479;-45
2022/09/17 04:31:23;;;;;;;4.63;2.20;;;8.90;99.90;;;;;;5118573;28;20212;-43
2022/09/17 04:33:50;;;;;;;3.30;2.10;;;8.80;99.90;;;;;;5119003;28;20418;-44
2022/09/17 04:36:15;;;;;;;4.40;2.10;;;8.70;99.90;;;;;;5119764;28;20530;-43
2022/09/17 04:38:41;;;;;;;3.80;2.90;;;8.70;99.90;;;;;;5118919;28;20500;-48
2022/09/17 04:41:07;;;;;;;5.20;2.70;;;8.70;99.90;;;;;;5121028;28;20235;-47
2022/09/17 04:43:33;;;;;;;5.20;2.50;;;8.70;99.90;;;;;;5120804;28;20178;-44
2022/09/17 04:45:58;;;;;;;3.90;1.97;;;8.70;99.90;;;;;;5119351;28;20204;-44
2022/09/17 04:48:24;;;;;;;6.50;2.27;;;8.70;99.90;;;;;;5119638;28;20233;-44
2022/09/17 04:50:50;;;;;;;4.90;2.37;;;8.80;99.90;;;;;;5120299;28;20197;-45
2022/09/17 04:53:15;;;;;;;11.73;3.10;;;8.70;99.90;;;;;;5120502;28;20180;-47
2022/09/17 04:55:42;;;;;;;8.03;2.60;;;8.70;99.90;;;;;;5117379;28;20223;-48
2022/09/17 04:58:07;;;;;;;4.00;2.30;;;8.60;99.90;;;;;;5117391;28;20240;-46
2022/09/17 05:00:34;;;;;;;3.87;2.93;;;8.60;99.90;;;;;;5116724;28;20430;-45
2022/09/17 05:03:00;;;;;;;6.77;2.23;;;8.60;99.90;;;;;;5115972;28;20200;-43
2022/09/17 05:05:26;;;;;;;4.87;2.30;;;8.70;99.90;;;;;;5117023;28;20428;-45
2022/09/17 05:07:52;;;;;;;3.67;2.10;;;8.70;99.90;;;;;;5099101;28;20418;-44
2022/09/17 05:10:19;;;;;;;5.77;2.50;;;8.80;99.90;;;;;;5118374;28;20415;-44
2022/09/17 05:12:52;;;;;;;4.10;2.50;;;8.80;99.90;;;;;;5119968;28;20325;-46
2022/09/17 05:15:18;;;;;;;8.40;2.70;;;8.80;99.90;;;;;;5121157;28;20504;-46
2022/09/17 05:17:44;;;;;;;4.80;2.63;;;8.80;99.90;;;;;;5121020;28;20459;-43
2022/09/17 05:20:11;;;;;;;6.03;2.70;;;8.90;99.90;;;;;;5116593;28;20422;-42
2022/09/17 05:22:54;;;;;;;10.57;3.00;;;8.90;99.90;;;;;;5117207;28;20932;-43
2022/09/17 05:25:24;;;;;;;6.13;2.83;;;9.00;99.90;;;;;;5117646;28;20411;-43
2022/09/17 05:27:51;;;;;;;5.63;2.77;;;9.00;99.90;;;;;;5117104;28;20819;-47
2022/09/17 05:30:16;;;;;;;6.17;2.70;;;9.10;99.90;;;;;;5115611;28;20432;-42
2022/09/17 05:32:42;;;;;;;4.73;2.70;;;9.10;99.90;;;;;;5115258;28;20415;-47
2022/09/17 05:35:08;;;;;;;4.50;3.13;;;9.10;99.90;;;;;;5115382;28;20571;-44
2022/09/17 05:37:34;;;;;;;7.37;2.90;;;9.00;99.90;;;;;;5117172;28;20208;-43
2022/09/17 05:40:00;;;;;;;5.40;2.53;;;9.10;99.90;;;;;;5117678;28;20741;-43
2022/09/17 05:42:25;;;;;;;6.03;2.90;;;9.00;99.90;;;;;;5118910;28;20208;-44
2022/09/17 05:44:51;;;;;;;6.67;2.60;;;8.90;99.90;;;;;;5119587;28;20445;-44
2022/09/17 05:47:17;;;;;;;3.10;2.73;;;8.90;99.90;;;;;;5119218;28;20180;-45
2022/09/17 05:49:42;;;;;;;5.77;2.70;;;9.10;99.90;;;;;;5120266;28;20173;-45
2022/09/17 05:52:08;;;;;;;4.10;2.40;;;9.10;99.90;;;;;;5117783;28;20616;-43
2022/09/17 05:54:33;;;;;;;9.73;3.00;;;9.00;99.90;;;;;;5119374;28;20228;-44
2022/09/17 05:57:00;;;;;;;5.53;2.77;;;9.00;99.90;;;;;;5117356;28;20184;-43
2022/09/17 05:59:26;;;;;;;3.90;2.70;;;9.10;99.90;;;;;;5116028;28;20180;-48
2022/09/17 06:01:52;;;;;;;4.13;2.77;;;9.20;99.90;;;;;;5117886;28;20473;-46
2022/09/17 06:04:18;;;;;;;6.50;2.97;;;9.20;99.90;;;;;;5115869;28;20825;-46
2022/09/17 06:06:43;;;;;;;4.33;2.63;;;9.20;99.90;;;;;;5114983;28;20441;-44
2022/09/17 06:09:09;;;;;;;3.70;2.47;;;9.20;99.90;;;;;;5116195;28;20176;-47
2022/09/17 06:11:36;;;;;;;5.37;3.17;;;9.30;99.90;;;;;;5117316;28;20250;-43
2022/09/17 06:14:02;;;;;;;6.47;2.80;;;9.30;99.90;;;;;;5098464;28;20517;-45
2022/09/17 06:16:28;;;;;;;7.73;3.60;;;9.40;99.90;;;;;;5116917;28;20422;-43
2022/09/17 06:18:54;;;;;;;8.10;3.37;;;9.50;99.90;;;;;;5116289;28;20856;-47
2022/09/17 06:21:22;;;;;;;4.27;2.70;;;9.60;99.90;;;;;;5115197;28;20436;-45
2022/09/17 06:23:49;;;;;;;5.30;2.83;;;9.70;99.90;;;;;;5116636;28;20244;-45
2022/09/17 06:26:15;;;;;;;4.33;2.70;;;9.70;99.90;;;;;;5118039;28;20457;-43
2022/09/17 06:28:40;;;;;;;17.50;3.80;;;9.70;99.90;;;;;;5125565;27;20467;-43
2022/09/17 06:31:08;;;;;;;7.83;3.60;;;9.80;99.90;;;;;;5131692;27;20172;-43
2022/09/17 06:33:35;;;;;;;5.50;2.80;;;9.90;99.70;;;;;;5097229;28;20560;-44
2022/09/17 06:36:07;;;;;;;4.43;3.20;;;10.00;99.00;;;;;;5098821;28;20674;-45
2022/09/17 06:38:35;;;;;;;3.83;2.90;;;10.10;99.00;;;;;;5117138;28;20672;-46
2022/09/17 06:41:00;;;;;;;7.10;3.10;;;9.90;99.30;;;;;;5116190;28;20735;-45
2022/09/17 06:43:26;;;;;;;5.30;2.70;;;9.80;99.60;;;;;;5115415;28;20451;-46
2022/09/17 06:45:53;;;;;;;5.33;2.80;;;9.90;99.80;;;;;;5117283;28;20611;-46
2022/09/17 06:48:19;;;;;;;5.47;3.10;;;9.80;99.50;;;;;;5117596;28;20176;-47
2022/09/17 06:50:45;;;;;;;6.00;3.10;;;9.80;99.30;;;;;;5117566;28;20746;-44
2022/09/17 06:53:11;;;;;;;5.50;3.13;;;9.90;99.40;;;;;;5116756;28;20448;-43
2022/09/17 06:55:36;;;;;;;8.43;5.80;;;9.90;99.00;;;;;;5116335;28;20567;-44
2022/09/17 06:58:02;;;;;;;5.10;3.33;;;9.90;98.70;;;;;;5116118;28;20176;-44
2022/09/17 07:00:27;;;;;;;6.80;3.37;;;9.90;98.60;;;;;;5116407;28;20180;-46
2022/09/17 07:03:00;;;;;;;7.10;3.00;;;9.80;98.60;;;;;;5115649;28;20584;-45
2022/09/17 07:05:26;;;;;;;4.50;2.70;;;9.80;98.90;;;;;;5118788;28;20185;-46
2022/09/17 07:07:53;;;;;;;5.00;2.90;;;9.70;99.50;;;;;;5099172;28;20430;-43
2022/09/17 07:10:19;;;;;;;7.00;3.50;;;9.70;99.90;;;;;;5116310;28;20418;-44
2022/09/17 07:12:44;;;;;;;4.40;2.50;;;9.60;99.90;;;;;;5098649;28;20415;-44
2022/09/17 07:15:10;;;;;;;4.20;3.13;;;9.60;99.90;;;;;;5116159;28;20809;-45
2022/09/17 07:17:39;;;;;;;8.97;3.67;;;9.70;99.90;;;;;;5116511;28;20179;-46
2022/09/17 07:20:06;;;;;;;7.00;3.50;;;9.60;99.90;;;;;;5115796;28;20828;-50
2022/09/17 07:22:31;;;;;;;4.97;3.27;;;9.50;99.90;;;;;;5115614;28;20738;-43
2022/09/17 07:24:57;;;;;;;5.57;2.70;;;9.40;99.90;;;;;;5116770;28;20418;-44
2022/09/17 07:27:23;;;;;;;4.90;3.10;;;9.30;99.90;;;;;;5116558;28;20164;-46
2022/09/17 07:29:48;;;;;;;10.80;3.43;;;9.40;99.90;;;;;;5116442;28;20462;-43
2022/09/17 07:32:14;;;;;;;8.80;3.17;;;9.50;99.90;;;;;;5116780;28;20187;-50
2022/09/17 07:34:39;;;;;;;5.40;3.07;;;9.60;99.90;;;;;;5115954;28;20189;-43
2022/09/17 07:37:05;;;;;;;5.03;2.80;;;9.70;99.90;;;;;;5097659;28;20172;-46
2022/09/17 07:39:31;;;;;;;5.40;3.27;;;10.00;99.90;;;;;;5116402;28;20267;-43
2022/09/17 07:41:56;;;;;;;4.77;3.20;;;10.00;99.80;;;;;;5115667;28;20196;-44
2022/09/17 07:44:22;;;;;;;3.80;2.60;;;10.20;99.90;;;;;;5117318;28;20184;-45
2022/09/17 07:46:47;;;;;;;4.67;2.63;;;10.10;99.90;;;;;;5116502;28;20531;-44
2022/09/17 07:49:13;;;;;;;4.57;2.70;;;10.10;99.90;;;;;;5115043;28;20225;-42
2022/09/17 07:51:38;;;;;;;5.40;2.73;;;10.10;99.90;;;;;;5115576;28;20219;-46
2022/09/17 07:54:05;;;;;;;4.57;2.87;;;9.60;99.90;;;;;;5114561;28;20216;-44
2022/09/17 07:56:31;;;;;;;4.30;2.53;;;9.40;99.90;;;;;;5114817;28;20176;-44
2022/09/17 07:58:57;;;;;;;3.33;3.03;;;9.30;99.90;;;;;;5114941;28;20434;-44
2022/09/17 08:01:23;;;;;;;2.97;2.67;;;9.30;99.90;;;;;;5113705;28;20224;-46
2022/09/17 08:03:50;;;;;;;9.30;3.70;;;9.20;99.90;;;;;;5116925;28;20192;-44
2022/09/17 08:06:18;;;;;;;4.10;2.67;;;9.00;99.90;;;;;;5118462;28;20587;-43
2022/09/17 08:08:44;;;;;;;3.63;3.30;;;8.90;99.90;;;;;;5136050;28;20492;-46
2022/09/17 08:11:12;;;;;;;3.93;3.53;;;9.00;99.90;;;;;;5135778;28;20496;-44
2022/09/17 08:13:38;;;;;;;6.63;3.37;;;9.30;99.90;;;;;;5136979;28;20275;-43
2022/09/17 08:16:07;;;;;;;6.90;3.50;;;9.60;99.90;;;;;;5136615;28;20494;-43
2022/09/17 08:18:33;;;;;;;6.00;3.20;;;9.60;99.90;;;;;;5137208;28;20177;-46
2022/09/17 08:21:00;;;;;;;4.30;2.90;;;9.70;99.90;;;;;;5135867;28;20448;-45
2022/09/17 08:23:26;;;;;;;2.87;2.60;;;9.90;99.90;;;;;;5137278;28;20425;-44
2022/09/17 08:25:56;;;;;;;4.80;2.97;;;9.80;99.90;;;;;;5137085;28;20837;-43
2022/09/17 08:28:24;;;;;;;4.57;2.90;;;9.80;99.90;;;;;;5137034;28;20497;-43
2022/09/17 08:30:50;;;;;;;4.53;3.37;;;9.90;99.90;;;;;;5136028;28;20421;-43
2022/09/17 08:33:16;;;;;;;4.63;2.97;;;10.10;99.90;;;;;;5137262;28;20891;-53
2022/09/17 08:35:50;;;;;;;4.50;2.80;;;10.10;99.90;;;;;;5134881;28;20422;-45
2022/09/17 08:38:15;;;;;;;4.50;3.13;;;10.00;99.90;;;;;;5135483;28;20427;-45
2022/09/17 08:40:59;;;;;;;5.60;3.37;;;10.10;99.90;;;;;;5134458;28;20438;-45
2022/09/17 08:43:26;;;;;;;6.23;3.57;;;10.30;99.90;;;;;;5134390;28;20274;-42
2022/09/17 08:45:56;;;;;;;7.73;3.63;;;10.70;99.90;;;;;;5115647;28;20417;-43
2022/09/17 08:48:24;;;;;;;5.67;2.40;;;10.90;99.90;;;;;;5132417;28;20417;-41
2022/09/17 08:50:50;;;;;;;5.87;3.00;;;11.00;99.90;;;;;;5114140;28;20436;-43
2022/09/17 08:53:26;;;;;;;4.47;2.90;;;11.10;99.90;;;;;;5135080;28;20515;-44
2022/09/17 08:56:05;;;;;;;5.17;2.90;;;11.30;99.40;;;;;;5135866;28;20494;-43
2022/09/17 08:59:00;;;;;;;5.40;3.00;;;11.60;99.30;;;;;;5139585;27;20425;-42
2022/09/17 09:01:40;;;;;;;6.40;3.03;;;11.70;97.30;;;;;;5122096;27;20874;-43
2022/09/17 09:04:24;;;;;;;6.13;2.60;;;11.80;97.60;;;;;;5121112;27;20928;-44
2022/09/17 09:06:54;;;;;;;7.50;2.90;;;11.90;97.60;;;;;;5137871;27;20412;-44
2022/09/17 09:09:22;;;;;;;6.70;2.60;;;12.00;97.80;;;;;;5137689;27;20807;-43
2022/09/17 09:11:51;;;;;;;11.20;3.00;;;12.20;97.20;;;;;;5137135;27;20448;-43
2022/09/17 09:14:25;;;;;;;4.53;2.63;;;12.20;96.60;;;;;;5133857;27;20980;-42
2022/09/17 09:16:51;;;;;;;6.30;3.20;;;12.20;97.00;;;;;;5115574;27;20408;-43
2022/09/17 09:19:20;;;;;;;7.37;3.23;;;12.30;96.30;;;;;;5116662;27;20660;-44
2022/09/17 09:21:54;;;;;;;8.33;3.53;;;12.10;95.50;;;;;;5131878;27;20517;-43
2022/09/17 09:24:23;;;;;;;9.60;3.10;;;11.80;95.70;;;;;;5131768;27;20424;-43
2022/09/17 09:27:17;;;;;;;6.70;2.83;;;11.70;96.20;;;;;;5132529;27;20784;-44
2022/09/17 09:30:05;;;;;;;9.13;3.07;;;11.40;96.90;;;;;;5136034;27;20559;-46
2022/09/17 09:32:56;;;;;;;6.43;3.20;;;11.60;97.00;;;;;;5120459;27;20434;-44
2022/09/17 09:35:26;;;;;;;9.60;3.70;;;11.60;96.60;;;;;;5138304;27;20803;-47
2022/09/17 09:38:01;;;;;;;9.80;2.93;;;11.50;96.90;;;;;;5120313;27;20770;-42
2022/09/17 09:40:32;;;;;;;7.70;3.37;;;11.70;96.40;;;;;;5136076;27;20420;-43
2022/09/17 09:43:02;;;;;;;17.90;3.40;;;12.40;96.00;;;;;;5138685;27;20466;-44
2022/09/17 09:45:42;;;;;;;16.60;4.37;;;13.10;94.70;;;;;;5139081;27;20442;-47
2022/09/17 09:48:16;;;;;;;6.80;2.83;;;13.30;93.90;;;;;;5119315;27;20509;-43
2022/09/17 09:51:04;;;;;;;7.30;3.20;;;12.70;93.50;;;;;;5136773;27;20435;-43
2022/09/17 09:53:36;;;;;;;4.60;2.90;;;12.00;94.20;;;;;;5127570;27;20528;-43
2022/09/17 09:56:23;;;;;;;6.00;3.30;;;11.60;95.80;;;;;;5128630;27;20464;-43
2022/09/17 09:58:48;;;;;;;5.60;3.07;;;11.60;96.10;;;;;;5119081;27;20415;-42
2022/09/17 10:01:16;;;;;;;5.77;3.30;;;11.50;96.00;;;;;;5121636;27;20416;-44
2022/09/17 10:03:45;;;;;;;6.07;2.77;;;11.80;95.60;;;;;;5129536;27;20176;-46
2022/09/17 10:06:11;;;;;;;4.33;2.97;;;12.20;95.20;;;;;;5119003;27;20426;-43
2022/09/17 10:09:01;;;;;;;5.67;2.50;;;12.60;94.20;;;;;;5135059;27;20517;-44
2022/09/17 10:11:32;;;;;;;5.23;2.40;;;12.70;92.80;;;;;;5127765;27;20462;-43
2022/09/17 10:14:36;;;;;;;5.03;3.20;;;12.90;93.00;;;;;;5122837;27;20483;-42
2022/09/17 10:17:22;;;;;;;7.93;2.90;;;12.60;92.90;;;;;;5049644;28;20436;-43
2022/09/17 10:20:12;;;;;;;7.97;3.40;;;12.50;93.60;;;;;;5109099;27;20520;-43
2022/09/17 10:22:47;;;;;;;4.43;2.60;;;12.80;93.10;;;;;;5104770;28;20528;-43
2022/09/17 10:25:24;;;;;;;4.63;3.00;;;12.70;92.70;;;;;;5118856;27;20427;-43
2022/09/17 10:27:49;;;;;;;4.90;2.40;;;12.80;92.80;;;;;;5125612;27;20469;-43
2022/09/17 10:30:16;;;;;;;4.97;2.40;;;13.60;92.10;;;;;;5134466;27;20466;-43
2022/09/17 10:32:42;;;;;;;3.93;1.93;;;14.60;89.60;;;;;;5137291;27;20185;-42
2022/09/17 10:35:14;;;;;;;7.40;2.17;;;15.90;85.20;;;;;;5116162;27;20867;-44
2022/09/17 10:37:45;;;;;;;4.03;2.10;;;17.00;78.40;;;;;;5125634;27;20424;-44
2022/09/17 10:40:17;;;;;;;3.60;1.80;;;18.00;77.10;;;;;;5116523;28;20497;-45
2022/09/17 10:43:03;;;;;;;4.80;1.90;;;19.00;73.30;;;;;;5118175;27;20495;-44
2022/09/17 10:45:30;;;;;;;4.37;2.20;;;19.80;65.60;;;;;;5105560;27;20432;-47
2022/09/17 10:47:57;;;;;;;1.97;1.30;;;20.50;62.10;;;;;;5098051;28;20517;-46
2022/09/17 10:50:26;;;;;;;3.50;1.87;;;22.60;60.60;;;;;;5099646;28;20598;-47
2022/09/17 10:53:03;;;;;;;3.90;1.60;;;22.60;55.10;;;;;;5098505;28;20435;-45
2022/09/17 10:55:47;;;;;;;4.00;1.67;;;22.70;55.70;;;;;;5098542;28;20881;-47
2022/09/17 10:58:13;;;;;;;4.47;2.20;;;22.00;55.00;;;;;;5117069;28;20421;-46
2022/09/17 11:01:10;;;;;;;4.73;2.07;;;21.30;56.40;;;;;;5118380;28;20702;-45
2022/09/17 11:04:01;;;;;;;3.00;1.70;;;20.30;56.30;;;;;;5116125;28;20513;-48
2022/09/17 11:06:55;;;;;;;3.30;1.80;;;19.30;59.10;;;;;;5116257;28;20406;-48
2022/09/17 11:09:36;;;;;;;3.57;1.90;;;19.10;58.70;;;;;;5098378;28;20422;-45
2022/09/17 11:12:13;;;;;;;4.90;1.57;;;18.90;58.40;;;;;;5114448;28;20395;-44
2022/09/17 11:14:55;;;;;;;3.60;1.80;;;17.00;58.70;;;;;;5114827;28;20451;-45
2022/09/17 11:17:39;;;;;;;3.93;2.03;;;16.10;63.20;;;;;;5115931;28;20441;-44
2022/09/17 11:20:42;;;;;;;4.73;2.33;;;16.10;66.00;;;;;;5114748;28;20428;-45
2022/09/17 11:23:33;;;;;;;1.80;1.30;;;16.50;63.60;;;;;;5114371;28;20457;-46
2022/09/17 11:26:15;;;;;;;3.43;1.13;;;17.50;59.70;;;;;;5115632;28;20486;-45
2022/09/17 11:29:11;;;;;;;2.27;1.40;;;17.80;58.10;;;;;;5115857;28;20411;-43
2022/09/17 11:31:55;;;;;;;2.90;1.33;;;18.60;57.80;;;;;;5116275;28;20426;-44
2022/09/17 11:34:50;;;;;;;4.30;1.20;;;19.00;57.70;;;;;;5098659;28;20771;-45
2022/09/17 11:37:47;;;;;;;4.17;1.63;;;19.90;55.50;;;;;;5117187;28;20443;-44
2022/09/17 11:40:24;;;;;;;2.70;1.13;;;19.30;54.70;;;;;;5116563;28;20425;-48
2022/09/17 11:42:54;;;;;;;2.80;1.37;;;19.10;54.30;;;;;;5115916;28;20500;-42
2022/09/17 11:45:24;;;;;;;3.00;1.20;;;20.50;53.50;;;;;;5113451;28;20443;-47
2022/09/17 11:48:04;;;;;;;3.53;1.43;;;20.80;50.80;;;;;;5098548;27;20839;-46
2022/09/17 11:50:53;;;;;;;3.30;1.10;;;21.80;50.80;;;;;;5116625;27;20405;-44
2022/09/17 11:53:41;;;;;;;1.93;0.90;;;22.30;48.30;;;;;;5134918;27;20429;-47
2022/09/17 11:56:14;;;;;;;2.47;1.40;;;23.00;46.80;;;;;;5094894;28;20927;-45
2022/09/17 11:58:42;;;;;;;3.10;1.50;;;24.10;45.60;;;;;;5095579;28;20514;-45
2022/09/17 12:01:13;;;;;;;3.00;1.37;;;25.60;44.60;;;;;;5096703;28;20851;-44
2022/09/17 12:03:43;;;;;;;2.70;1.53;;;24.00;42.40;;;;;;5095796;28;20445;-44
2022/09/17 12:06:13;;;;;;;5.10;1.80;;;23.60;44.80;;;;;;5093201;28;20420;-46
2022/09/17 12:08:57;;;;;;;3.00;1.40;;;24.50;43.80;;;;;;5093589;28;20424;-47
2022/09/17 12:11:33;;;;;;;3.30;1.77;;;24.20;43.40;;;;;;5094218;28;20414;-45
2022/09/17 12:14:22;;;;;;;6.60;1.57;;;21.60;45.70;;;;;;5090193;28;20513;-50
2022/09/17 12:16:51;;;;;;;4.80;1.47;;;20.00;45.70;;;;;;5091350;28;20418;-48
2022/09/17 12:19:22;;;;;;;2.67;1.40;;;19.40;46.90;;;;;;5091488;28;20430;-46
2022/09/17 12:21:55;;;;;;;2.90;1.23;;;18.70;48.20;;;;;;5090988;28;20467;-46
2022/09/17 12:24:26;;;;;;;4.50;1.57;;;17.40;49.60;;;;;;5093272;28;21073;-45
2022/09/17 12:27:33;;;;;;;2.63;1.30;;;17.20;51.10;;;;;;5093141;28;20417;-45
2022/09/17 12:30:08;;;;;;;6.00;1.67;;;16.60;52.00;;;;;;5031097;28;20531;-43
2022/09/17 12:32:56;;;;;;;2.83;1.40;;;16.60;53.30;;;;;;5086034;28;20597;-46
2022/09/17 12:36:02;;;;;;;6.20;1.70;;;16.30;53.50;;;;;;5097923;28;20418;-48
2022/09/17 12:38:52;;;;;;;3.40;1.40;;;16.40;54.60;;;;;;5097368;28;20428;-43
2022/09/17 12:42:02;;;;;;;2.70;1.53;;;16.70;55.40;;;;;;5097204;28;20421;-46
2022/09/17 12:44:42;;;;;;;3.47;1.37;;;16.40;54.50;;;;;;5063916;28;20441;-44
2022/09/17 12:47:35;;;;;;;2.90;1.40;;;15.90;55.00;;;;;;5097054;28;20431;-44
2022/09/17 12:50:36;;;;;;;2.53;1.60;;;15.50;56.30;;;;;;5097869;28;20773;-45
2022/09/17 12:53:20;;;;;;;2.40;1.27;;;15.00;57.50;;;;;;5075724;28;20523;-43
2022/09/17 12:56:35;;;;;;;4.63;1.87;;;14.80;62.70;;;;;;5134583;27;20471;-43
2022/09/17 12:59:13;;;;;;;4.03;1.97;;;14.60;71.00;;;;;;5106770;27;20431;-45
2022/09/17 13:02:01;;;;;;;2.70;2.10;;;14.60;75.50;;;;;;5120984;27;20485;-44
2022/09/17 13:04:49;;;;;;;2.20;1.70;;;14.80;78.50;;;;;;5120561;27;20453;-43
2022/09/17 13:07:56;;;;;;;4.03;1.90;;;14.70;80.90;;;;;;5138580;27;20409;-46
2022/09/17 13:10:59;;;;;;;4.30;1.53;;;14.50;83.10;;;;;;5139452;27;20407;-43
2022/09/17 13:13:34;;;;;;;3.97;1.40;;;13.60;89.40;;;;;;5139374;27;20446;-42
2022/09/17 13:16:10;;;;;;;3.60;1.80;;;12.80;91.50;;;;;;5138383;27;20409;-43
2022/09/17 13:19:09;;;;;;;4.60;1.30;;;12.10;94.20;;;;;;5140200;27;20178;-43
2022/09/17 13:21:59;;;;;;;3.27;1.87;;;11.80;96.30;;;;;;5140785;27;20452;-44
2022/09/17 13:24:28;;;;;;;5.07;1.90;;;11.60;97.40;;;;;;5121680;27;20423;-44